Time;durP1;ratioP1;P1;durP2;ratioP2;P2;SDS_P1;SDS_P2;PMS_P1;PMS_P2;Temp;Humidity;BMP_temperature;BMP_pressure;BME280_temperature;BME280_humidity;BME280_pressure;Samples;Min_cycle;Max_cycle;Signal;HPM_P1;HPM_P2
2021/12/26 00:00:42;;;;;;;47.88;43.58;;;;;;;-6.44;86.07;101420.53;6085080;23;20002;-84
2021/12/26 00:03:08;;;;;;;50.50;45.65;;;;;;;-6.44;86.68;101438.94;6082627;23;20006;-84
2021/12/26 00:05:34;;;;;;;48.07;44.43;;;;;;;-6.38;87.20;101449.28;6059789;23;20000;-84
2021/12/26 00:07:59;;;;;;;48.80;44.83;;;;;;;-6.50;87.07;101426.09;6062013;23;20061;-84
2021/12/26 00:10:26;;;;;;;38.33;34.93;;;;;;;-6.23;86.33;101425.81;6072147;23;19997;-83
2021/12/26 00:12:51;;;;;;;49.25;44.85;;;;;;;-6.39;86.96;101447.53;6075117;23;20030;-83
2021/12/26 00:15:17;;;;;;;48.47;44.33;;;;;;;-6.26;86.67;101438.16;6069523;23;20021;-83
2021/12/26 00:17:42;;;;;;;48.55;44.38;;;;;;;-6.00;86.49;101419.44;6062423;23;20006;-84
2021/12/26 00:20:09;;;;;;;48.30;44.20;;;;;;;-5.91;86.11;101439.06;6063252;23;20038;-84
2021/12/26 00:22:35;;;;;;;49.17;44.60;;;;;;;-6.12;86.19;101442.22;6064009;23;20022;-83
2021/12/26 00:25:01;;;;;;;35.70;32.70;;;;;;;-6.27;87.00;101433.94;6090170;23;20006;-83
2021/12/26 00:27:27;;;;;;;47.72;43.90;;;;;;;-6.27;86.87;101436.44;6064343;23;20007;-84
2021/12/26 00:29:52;;;;;;;48.00;43.97;;;;;;;-6.57;87.68;101394.91;6087884;23;20002;-83
2021/12/26 00:32:18;;;;;;;47.83;43.83;;;;;;;-6.39;87.85;101430.03;6062985;23;20084;-83
2021/12/26 00:34:44;;;;;;;49.03;45.10;;;;;;;-6.78;87.89;101393.78;6062246;23;20389;-83
2021/12/26 00:37:10;;;;;;;47.90;44.30;;;;;;;-6.40;88.33;101428.28;6066746;23;20410;-82
2021/12/26 00:39:36;;;;;;;49.03;44.70;;;;;;;-6.46;87.81;101397.97;6090025;23;20002;-83
2021/12/26 00:42:01;;;;;;;46.83;43.30;;;;;;;-6.51;88.27;101419.38;6065140;23;20010;-83
2021/12/26 00:44:27;;;;;;;49.70;45.40;;;;;;;-6.09;87.50;101422.34;6098830;23;20038;-83
2021/12/26 00:46:53;;;;;;;50.10;45.65;;;;;;;-6.29;87.01;101410.47;6092859;23;20026;-83
2021/12/26 00:49:20;;;;;;;49.25;45.05;;;;;;;-6.42;87.62;101414.84;6086277;23;20014;-83
2021/12/26 00:51:46;;;;;;;50.55;45.17;;;;;;;-6.35;87.25;101425.16;6066503;23;20014;-83
2021/12/26 00:54:11;;;;;;;49.90;45.30;;;;;;;-6.22;86.72;101427.50;6063640;23;20007;-83
2021/12/26 00:56:37;;;;;;;48.87;44.47;;;;;;;-6.53;87.04;101423.44;6062591;23;20012;-84
2021/12/26 00:59:02;;;;;;;48.60;44.23;;;;;;;-6.78;87.92;101427.16;6062122;23;20030;-83
2021/12/26 01:01:28;;;;;;;48.63;44.40;;;;;;;-6.93;88.69;101413.84;6086696;23;20005;-82
2021/12/26 01:03:53;;;;;;;49.03;44.80;;;;;;;-7.01;89.04;101397.56;6061284;23;20009;-82
2021/12/26 01:06:18;;;;;;;49.60;45.23;;;;;;;-6.45;88.49;101429.69;6061686;23;20003;-83
2021/12/26 01:08:48;;;;;;;48.93;44.57;;;;;;;-6.57;87.22;101424.06;6060659;23;20010;-83
2021/12/26 01:11:18;;;;;;;47.28;43.20;;;;;;;-6.52;86.87;101427.69;6086291;23;20009;-83
2021/12/26 01:13:46;;;;;;;47.33;43.65;;;;;;;-6.71;86.89;101424.97;6085261;23;19999;-83
2021/12/26 01:16:12;;;;;;;48.85;44.65;;;;;;;-7.18;87.74;101397.50;6085287;23;20044;-83
2021/12/26 01:18:40;;;;;;;;;;;;;;;-7.04;88.31;101434.94;6097123;23;20025;-83
2021/12/26 01:21:20;;;;;;;46.55;42.45;;;;;;;-6.98;88.34;101437.75;6099149;23;19901;-83
2021/12/26 01:23:51;;;;;;;49.58;44.90;;;;;;;-7.25;88.34;101409.59;6098988;23;20022;-82
2021/12/26 01:26:17;;;;;;;47.90;43.70;;;;;;;-7.04;88.54;101437.44;6075232;23;19994;-82
2021/12/26 01:28:43;;;;;;;47.65;43.45;;;;;;;-7.17;89.08;101444.25;6075096;23;20027;-82
2021/12/26 01:31:08;;;;;;;45.93;42.27;;;;;;;-6.84;89.51;101444.38;6075330;23;19994;-83
2021/12/26 01:33:34;;;;;;;45.43;41.93;;;;;;;-7.02;88.78;101440.84;6098227;23;20011;-83
2021/12/26 01:35:59;;;;;;;47.50;43.10;;;;;;;-6.81;87.78;101444.53;6095493;23;20017;-83
2021/12/26 01:38:25;;;;;;;47.80;43.50;;;;;;;-7.06;88.63;101426.47;6073222;23;20018;-83
2021/12/26 01:40:55;;;;;;;47.43;42.97;;;;;;;-6.76;88.53;101438.13;6075547;23;20005;-83
2021/12/26 01:43:24;;;;;;;49.50;44.90;;;;;;;-7.26;89.08;101418.75;6076086;23;19998;-82
2021/12/26 01:45:51;;;;;;;48.95;44.60;;;;;;;-7.07;89.78;101440.59;6100780;23;20015;-82
2021/12/26 01:48:17;;;;;;;48.42;44.17;;;;;;;-7.18;90.07;101430.00;6099911;23;20026;-83
2021/12/26 01:50:45;;;;;;;48.72;44.33;;;;;;;-7.28;90.84;101447.81;6100879;23;19998;-82
2021/12/26 01:53:10;;;;;;;49.13;44.65;;;;;;;-7.06;89.64;101436.47;6100521;23;20022;-82
2021/12/26 01:55:42;;;;;;;49.22;44.90;;;;;;;-7.13;90.19;101445.28;6076502;23;19999;-83
2021/12/26 01:58:14;;;;;;;49.40;44.92;;;;;;;-7.31;90.38;101440.97;6099789;23;20014;-83
2021/12/26 02:00:43;;;;;;;49.97;45.67;;;;;;;-7.38;90.89;101443.06;6061645;23;20037;-83
2021/12/26 02:03:08;;;;;;;47.90;43.58;;;;;;;-7.39;91.18;101432.22;6084432;23;20273;-83
2021/12/26 02:05:34;;;;;;;47.15;43.17;;;;;;;-7.32;90.83;101428.41;6061625;23;20050;-83
2021/12/26 02:07:59;;;;;;;48.40;44.37;;;;;;;-7.38;91.00;101433.06;6086004;23;20434;-83
2021/12/26 02:10:24;;;;;;;48.80;44.27;;;;;;;-7.14;90.44;101419.41;6062400;23;20037;-84
2021/12/26 02:12:50;;;;;;;49.70;45.23;;;;;;;-7.43;90.40;101419.44;6062458;23;20078;-84
2021/12/26 02:15:16;;;;;;;49.87;44.90;;;;;;;-7.16;90.41;101418.47;6083471;23;20030;-83
2021/12/26 02:17:41;;;;;;;51.23;45.77;;;;;;;-7.29;90.26;101426.06;6058477;23;20013;-84
2021/12/26 02:20:32;;;;;;;46.67;42.90;;;;;;;-7.38;89.89;101418.94;6056782;23;20026;-83
2021/12/26 02:23:03;;;;;;;46.22;41.80;;;;;;;-7.36;90.29;101422.38;6080903;23;20319;-83
2021/12/26 02:27:57;;;;;;;46.20;42.53;;;;;;;-7.22;89.01;101437.25;6080470;23;20013;-84
2021/12/26 02:30:23;;;;;;;35.80;32.27;;;;;;;-7.29;88.45;101429.41;6079753;23;20006;-83
2021/12/26 02:32:50;;;;;;;48.35;44.17;;;;;;;-7.55;88.94;101435.50;6078378;23;20244;-83
2021/12/26 02:35:17;;;;;;;46.60;42.70;;;;;;;-7.68;89.27;101418.94;6053812;23;20034;-82
2021/12/26 02:37:43;;;;;;;46.88;42.58;;;;;;;-7.49;89.40;101430.84;6053260;23;20006;-83
2021/12/26 02:40:09;;;;;;;48.93;44.40;;;;;;;-7.58;89.08;101417.81;6067115;23;19998;-82
2021/12/26 02:42:34;;;;;;;49.60;44.63;;;;;;;-7.70;89.43;101433.00;6075638;23;20053;-83
2021/12/26 02:45:00;;;;;;;46.40;41.73;;;;;;;-7.53;89.23;101426.44;6066650;23;20030;-84
2021/12/26 02:47:37;;;;;;;46.90;42.92;;;;;;;-7.45;88.70;101428.50;6089713;23;20017;-83
2021/12/26 02:50:06;;;;;;;46.08;42.47;;;;;;;-7.46;88.72;101425.13;6093053;23;20007;-83
2021/12/26 02:52:31;;;;;;;45.35;41.67;;;;;;;-7.42;88.59;101431.19;6087037;23;20070;-83
2021/12/26 02:55:00;;;;;;;46.37;42.67;;;;;;;-7.38;88.71;101438.06;6061871;23;20477;-84
2021/12/26 02:57:28;;;;;;;47.33;43.40;;;;;;;-7.57;88.32;101418.69;6085753;23;20458;-84
2021/12/26 02:59:54;;;;;;;46.35;42.28;;;;;;;-7.43;88.20;101439.44;6084903;23;19999;-84
2021/12/26 03:02:19;;;;;;;48.00;43.37;;;;;;;-7.18;87.38;101429.16;6061031;23;19999;-83
2021/12/26 03:04:45;;;;;;;47.60;43.07;;;;;;;-7.40;88.13;101424.63;6060900;23;20030;-84
2021/12/26 03:07:10;;;;;;;46.23;41.70;;;;;;;-7.14;86.78;101416.06;6059717;23;20042;-84
2021/12/26 03:09:45;;;;;;;45.47;41.53;;;;;;;-7.21;87.31;101427.34;6059975;23;20002;-84
2021/12/26 03:12:11;;;;;;;46.45;42.25;;;;;;;-7.43;87.65;101425.31;6061400;23;20071;-83
2021/12/26 03:14:38;;;;;;;47.63;43.33;;;;;;;-7.54;87.93;101417.22;6083755;23;20053;-84
2021/12/26 03:17:04;;;;;;;46.28;42.40;;;;;;;-7.68;88.02;101403.97;6060488;23;20009;-84
2021/12/26 03:19:33;;;;;;;46.97;42.97;;;;;;;-7.43;87.93;101426.94;6084903;23;20006;-84
2021/12/26 03:21:59;;;;;;;45.80;42.13;;;;;;;-7.47;87.69;101409.28;6097501;23;20002;-84
2021/12/26 03:24:24;;;;;;;46.73;42.93;;;;;;;-7.84;88.24;101393.91;6099384;23;20039;-83
2021/12/26 03:26:50;;;;;;;46.83;43.03;;;;;;;-7.68;88.15;101403.13;6075231;23;20051;-83
2021/12/26 03:29:15;;;;;;;47.47;43.63;;;;;;;-7.42;88.01;101419.53;6098514;23;19998;-83
2021/12/26 03:31:41;;;;;;;46.53;42.47;;;;;;;-7.41;87.31;101418.78;6075679;23;19999;-84
2021/12/26 03:34:07;;;;;;;45.35;41.72;;;;;;;-7.59;87.13;101410.25;6069818;23;20011;-84
2021/12/26 03:36:32;;;;;;;45.45;41.20;;;;;;;-7.47;87.46;101414.28;6060544;23;20003;-84
2021/12/26 03:38:57;;;;;;;46.40;42.67;;;;;;;-7.68;87.80;101403.97;6058117;23;20010;-83
2021/12/26 03:41:23;;;;;;;45.40;41.70;;;;;;;-7.82;88.31;101398.97;6057599;23;20003;-84
2021/12/26 03:43:48;;;;;;;45.10;41.47;;;;;;;-7.92;88.86;101417.53;6081377;23;20033;-83
2021/12/26 03:46:14;;;;;;;46.97;42.97;;;;;;;-7.66;88.62;101421.53;6056629;23;20141;-84
2021/12/26 03:48:39;;;;;;;45.85;41.97;;;;;;;-7.76;88.34;101424.28;6080905;23;20113;-83
2021/12/26 03:51:08;;;;;;;45.53;41.53;;;;;;;-8.05;88.58;101401.00;6057502;23;20010;-84
2021/12/26 03:53:33;;;;;;;45.00;41.50;;;;;;;-7.70;87.92;101400.53;6058333;23;20002;-84
2021/12/26 03:56:01;;;;;;;46.57;42.67;;;;;;;-8.04;88.27;101407.72;6068206;23;20030;-83
2021/12/26 03:58:26;;;;;;;46.15;42.38;;;;;;;-8.20;89.50;101411.81;6070494;23;20006;-83
2021/12/26 04:00:53;;;;;;;47.00;43.10;;;;;;;-8.27;89.65;101399.78;6069534;23;20020;-83
2021/12/26 04:03:18;;;;;;;43.47;40.10;;;;;;;-8.33;90.01;101398.56;6064378;23;20026;-83
2021/12/26 04:05:44;;;;;;;43.97;40.70;;;;;;;-7.89;89.52;101422.72;6062390;23;20013;-84
2021/12/26 04:08:09;;;;;;;44.67;40.43;;;;;;;-7.54;88.18;101412.25;6085670;23;20002;-84
2021/12/26 04:10:34;;;;;;;45.47;41.30;;;;;;;-7.52;87.93;101400.69;6061733;23;19998;-84
2021/12/26 04:13:00;;;;;;;43.63;40.20;;;;;;;-7.56;87.70;101413.78;6060971;23;20009;-83
2021/12/26 04:15:26;;;;;;;43.97;40.43;;;;;;;-7.48;87.28;101382.59;6060046;23;20010;-84
2021/12/26 04:17:52;;;;;;;45.17;41.58;;;;;;;-7.82;86.79;101398.97;6060925;23;20073;-84
2021/12/26 04:20:18;;;;;;;45.28;40.88;;;;;;;-7.55;86.89;101392.16;6060801;23;20528;-83
2021/12/26 04:22:43;;;;;;;46.58;42.38;;;;;;;-7.27;86.26;101409.50;6088123;23;20009;-83
2021/12/26 04:25:09;;;;;;;44.83;41.23;;;;;;;-7.67;86.04;101402.31;6070863;23;19998;-83
2021/12/26 04:27:35;;;;;;;45.30;41.73;;;;;;;-7.61;86.27;101406.81;6091583;23;20046;-83
2021/12/26 04:30:00;;;;;;;45.47;41.72;;;;;;;-7.56;86.52;101398.78;6098995;23;20233;-83
2021/12/26 04:32:26;;;;;;;44.30;40.87;;;;;;;-7.32;86.22;101398.41;6099325;23;20026;-82
2021/12/26 04:34:51;;;;;;;46.28;41.95;;;;;;;-7.70;86.12;101399.63;6099059;23;20260;-83
2021/12/26 04:37:17;;;;;;;45.00;41.20;;;;;;;-8.10;87.66;101382.41;6051584;23;20018;-84
2021/12/26 04:39:42;;;;;;;45.00;41.40;;;;;;;-7.70;86.54;101380.53;6075237;23;19999;-84
2021/12/26 04:42:08;;;;;;;45.87;41.67;;;;;;;-8.18;87.07;101398.59;6075219;23;19998;-83
2021/12/26 04:44:33;;;;;;;45.67;41.70;;;;;;;-7.98;87.55;101413.06;6093387;23;20080;-83
2021/12/26 04:46:58;;;;;;;45.23;41.60;;;;;;;-7.72;87.70;101417.03;6068846;23;20012;-84
2021/12/26 04:49:24;;;;;;;44.83;40.90;;;;;;;-7.60;86.74;101396.03;6092536;23;20011;-89
2021/12/26 04:51:52;;;;;;;44.20;40.40;;;;;;;-8.10;86.83;101387.41;6099168;23;19995;-88
2021/12/26 04:54:18;;;;;;;43.20;39.70;;;;;;;-8.27;86.71;101361.47;6097873;23;20014;-88
2021/12/26 04:56:45;;;;;;;43.70;40.53;;;;;;;-7.92;86.59;101375.97;6120301;23;20011;-89
2021/12/26 04:59:11;;;;;;;42.93;39.73;;;;;;;-8.14;86.39;101380.50;6086091;23;20013;-87
2021/12/26 05:01:36;;;;;;;43.90;40.22;;;;;;;-7.81;86.57;101376.56;6059336;23;20002;-88
2021/12/26 05:04:03;;;;;;;41.80;38.90;;;;;;;-7.75;86.05;101394.38;6058933;23;20014;-88
2021/12/26 05:06:29;;;;;;;43.47;40.05;;;;;;;-7.55;85.80;101384.66;6057728;23;20011;-87
2021/12/26 05:08:54;;;;;;;42.80;39.50;;;;;;;-7.43;85.09;101396.97;6056857;23;20013;-87
2021/12/26 05:11:20;;;;;;;43.77;40.17;;;;;;;-7.50;84.75;101390.78;6059939;23;20030;-90
2021/12/26 05:13:45;;;;;;;45.07;41.10;;;;;;;-7.28;84.21;101385.31;6058240;23;20007;-88
2021/12/26 05:16:13;;;;;;;42.97;39.77;;;;;;;-7.81;85.69;101395.69;6060273;23;20090;-89
2021/12/26 05:18:43;;;;;;;43.63;40.30;;;;;;;-7.92;85.71;101403.44;6065712;23;19990;-90
2021/12/26 05:21:14;;;;;;;44.08;40.72;;;;;;;-7.43;85.24;101395.31;6088006;23;20010;-88
2021/12/26 05:23:39;;;;;;;42.17;39.22;;;;;;;-7.69;84.61;101386.38;6059036;23;20460;-88
2021/12/26 05:26:05;;;;;;;42.90;39.60;;;;;;;-7.78;85.30;101383.38;6058696;23;20011;-89
2021/12/26 05:28:30;;;;;;;42.93;39.13;;;;;;;-7.65;84.75;101380.81;6060469;23;20037;-88
2021/12/26 05:30:56;;;;;;;43.03;39.23;;;;;;;-7.86;85.35;101381.31;6083798;23;20002;-89
2021/12/26 05:33:21;;;;;;;43.90;40.30;;;;;;;-7.97;85.67;101379.81;6059796;23;20018;-88
2021/12/26 05:35:46;;;;;;;44.50;40.80;;;;;;;-8.00;85.81;101384.66;6067055;23;20034;-88
2021/12/26 05:38:12;;;;;;;44.40;41.00;;;;;;;-7.95;86.05;101397.38;6070309;23;20050;-87
2021/12/26 05:40:37;;;;;;;42.83;39.63;;;;;;;-7.58;86.07;101390.34;6066603;23;20006;-88
2021/12/26 05:43:03;;;;;;;43.07;39.67;;;;;;;-7.57;85.17;101382.09;6063012;23;20058;-87
2021/12/26 05:45:28;;;;;;;44.77;40.87;;;;;;;-7.66;85.34;101377.41;6063173;23;20007;-89
2021/12/26 05:47:54;;;;;;;42.77;39.50;;;;;;;-7.58;85.35;101375.34;6062319;23;20033;-87
2021/12/26 05:50:20;;;;;;;43.03;39.78;;;;;;;-7.49;85.02;101370.88;6062910;23;20003;-87
2021/12/26 05:52:46;;;;;;;45.28;41.25;;;;;;;-8.24;85.81;101365.00;6060176;23;20284;-88
2021/12/26 05:55:12;;;;;;;43.53;40.08;;;;;;;-8.14;86.64;101378.00;6063098;23;20034;-89
2021/12/26 05:57:38;;;;;;;43.85;40.08;;;;;;;-8.39;87.31;101379.09;6062533;23;20007;-88
2021/12/26 06:00:08;;;;;;;43.40;40.00;;;;;;;-7.85;86.46;101373.03;6062512;23;20011;-89
2021/12/26 06:02:34;;;;;;;44.42;40.47;;;;;;;-7.82;85.99;101372.34;6088096;23;20010;-88
2021/12/26 06:04:59;;;;;;;43.73;40.10;;;;;;;-8.23;86.77;101384.19;6087896;23;20058;-88
2021/12/26 06:07:25;;;;;;;44.87;41.13;;;;;;;-8.00;86.08;101364.69;6062405;23;20175;-88
2021/12/26 06:09:53;;;;;;;42.70;39.30;;;;;;;-7.54;85.14;101382.25;6065856;23;20010;-88
2021/12/26 06:12:18;;;;;;;44.25;40.58;;;;;;;-8.16;85.33;101367.06;6068172;23;20007;-89
2021/12/26 06:14:44;;;;;;;42.80;39.40;;;;;;;-7.87;86.17;101372.09;6068003;23;19999;-88
2021/12/26 06:17:09;;;;;;;43.43;39.73;;;;;;;-7.98;85.69;101373.13;6068373;23;20075;-89
2021/12/26 06:19:35;;;;;;;42.63;39.53;;;;;;;-7.91;85.05;101330.22;6066802;23;20233;-89
2021/12/26 06:22:02;;;;;;;43.27;39.80;;;;;;;-7.64;85.48;101361.66;6062317;23;20007;-89
2021/12/26 06:24:31;;;;;;;42.80;39.78;;;;;;;-8.14;85.26;101341.44;6064080;23;20248;-88
2021/12/26 06:26:56;;;;;;;43.55;40.38;;;;;;;-8.48;86.90;101351.97;6069282;23;20034;-88
2021/12/26 06:29:22;;;;;;;42.27;39.10;;;;;;;-8.58;87.77;101377.19;6094095;23;20026;-88
2021/12/26 06:31:47;;;;;;;44.60;40.47;;;;;;;-8.14;86.92;101378.00;6071335;23;19994;-88
2021/12/26 06:34:13;;;;;;;43.20;39.10;;;;;;;-8.41;86.16;101329.09;6094423;23;20035;-89
2021/12/26 06:36:38;;;;;;;41.73;38.73;;;;;;;-8.41;86.35;101349.06;6070540;23;20094;-88
2021/12/26 06:39:09;;;;;;;43.43;40.23;;;;;;;-8.42;86.43;101372.28;6070284;23;20244;-88
2021/12/26 06:41:38;;;;;;;42.05;38.90;;;;;;;-8.43;87.09;101374.72;6071412;23;20026;-88
2021/12/26 06:44:06;;;;;;;42.47;39.03;;;;;;;-8.42;86.97;101383.91;6094305;23;20022;-88
2021/12/26 06:46:33;;;;;;;43.58;40.08;;;;;;;-8.33;86.92;101381.94;6064744;23;20042;-88
2021/12/26 06:48:58;;;;;;;40.25;37.42;;;;;;;-8.23;87.05;101386.69;6088318;23;20006;-88
2021/12/26 06:51:23;;;;;;;44.17;40.17;;;;;;;-8.24;86.50;101384.97;6070398;23;20014;-88
2021/12/26 06:53:51;;;;;;;41.77;38.67;;;;;;;-8.28;86.53;101370.59;6062563;23;20006;-87
2021/12/26 06:56:17;;;;;;;41.55;38.10;;;;;;;-8.33;86.24;101378.59;6053402;23;20010;-88
2021/12/26 06:58:42;;;;;;;41.33;38.33;;;;;;;-8.33;86.65;101379.44;6056454;23;20096;-87
2021/12/26 07:01:07;;;;;;;40.77;37.90;;;;;;;-8.29;85.96;101380.47;6055045;23;20011;-87
2021/12/26 07:03:33;;;;;;;40.50;37.20;;;;;;;-8.27;85.90;101381.41;6054137;23;20025;-88
2021/12/26 07:05:58;;;;;;;41.07;37.87;;;;;;;-8.36;85.80;101379.28;6054441;23;20003;-88
2021/12/26 07:08:26;;;;;;;42.00;38.80;;;;;;;-7.99;85.95;101390.53;6083881;23;20007;-89
2021/12/26 07:10:52;;;;;;;42.42;39.17;;;;;;;-8.15;85.46;101364.66;6068585;23;20014;-88
2021/12/26 07:13:17;;;;;;;40.93;37.87;;;;;;;-8.15;84.58;101364.66;6068112;23;19998;-88
2021/12/26 07:15:45;;;;;;;42.77;39.10;;;;;;;-8.46;85.33;101384.50;6070542;23;20014;-88
2021/12/26 07:18:11;;;;;;;43.20;39.67;;;;;;;-8.59;86.60;101395.41;6070515;23;20070;-88
2021/12/26 07:20:37;;;;;;;42.03;38.73;;;;;;;-8.68;86.72;101385.75;6069336;23;19998;-88
2021/12/26 07:23:12;;;;;;;41.15;37.80;;;;;;;-8.31;86.49;101392.88;6069506;23;20075;-89
2021/12/26 07:25:37;;;;;;;40.28;37.42;;;;;;;-8.11;85.35;101390.66;6065178;23;20010;-89
2021/12/26 07:28:06;;;;;;;41.63;38.43;;;;;;;-8.63;85.52;101351.97;6065498;23;20003;-88
2021/12/26 07:30:32;;;;;;;41.47;38.08;;;;;;;-8.60;86.01;101412.00;6068769;23;20030;-88
2021/12/26 07:32:57;;;;;;;41.72;38.63;;;;;;;-8.81;86.70;101364.22;6064991;23;20027;-89
2021/12/26 07:35:24;;;;;;;41.20;37.93;;;;;;;-8.55;85.64;101376.50;6061347;23;20022;-88
2021/12/26 07:37:51;;;;;;;42.70;39.15;;;;;;;-8.37;84.78;101407.47;6060950;23;20023;-88
2021/12/26 07:40:16;;;;;;;41.90;38.70;;;;;;;-8.42;84.75;101413.84;6060048;23;20010;-89
2021/12/26 07:42:42;;;;;;;40.97;37.93;;;;;;;-8.79;85.77;101370.13;6057979;23;20010;-89
2021/12/26 07:45:08;;;;;;;42.37;39.37;;;;;;;-8.64;85.87;101387.63;6083489;23;20435;-89
2021/12/26 07:47:33;;;;;;;42.03;38.78;;;;;;;-8.51;85.80;101396.75;6057953;23;20350;-87
2021/12/26 07:49:59;;;;;;;41.13;38.20;;;;;;;-8.44;85.38;101390.47;6058201;23;20007;-88
2021/12/26 07:52:29;;;;;;;40.00;37.20;;;;;;;-8.59;85.63;101390.41;6057071;23;20081;-88
2021/12/26 07:54:54;;;;;;;41.22;38.15;;;;;;;-8.43;85.94;101402.16;6057628;23;20011;-88
2021/12/26 07:57:19;;;;;;;40.60;37.80;;;;;;;-8.61;85.51;101387.81;6056282;23;20013;-87
2021/12/26 07:59:45;;;;;;;42.47;38.83;;;;;;;-8.75;85.60;101378.66;6055547;23;20047;-88
2021/12/26 08:02:16;;;;;;;40.70;37.83;;;;;;;-8.40;85.78;101397.31;6055983;23;20022;-87
2021/12/26 08:04:43;;;;;;;39.85;36.92;;;;;;;-8.69;85.75;101384.00;6056632;23;20340;-88
2021/12/26 08:07:09;;;;;;;41.88;38.63;;;;;;;-8.54;85.57;101400.66;6055896;23;20014;-87
2021/12/26 08:09:34;;;;;;;41.53;38.23;;;;;;;-8.10;84.83;101393.25;6055428;23;20055;-88
2021/12/26 08:11:59;;;;;;;42.47;39.30;;;;;;;-7.76;83.17;101405.16;6056640;23;20006;-88
2021/12/26 08:14:25;;;;;;;42.87;39.57;;;;;;;-7.47;81.57;101391.78;6081194;23;20007;-89
2021/12/26 08:16:51;;;;;;;44.50;40.97;;;;;;;-7.11;78.77;101378.69;6081242;23;20446;-87
2021/12/26 08:19:16;;;;;;;44.95;41.42;;;;;;;-6.62;77.13;101391.28;6079142;23;20007;-87
2021/12/26 08:21:42;;;;;;;42.35;39.55;;;;;;;-7.29;79.19;101384.44;6080202;23;20010;-88
2021/12/26 08:24:10;;;;;;;45.13;41.73;;;;;;;-7.65;80.16;101393.28;6078147;23;20003;-88
2021/12/26 08:26:36;;;;;;;44.95;41.53;;;;;;;-8.00;81.55;101398.78;6057218;23;20342;-88
2021/12/26 08:29:01;;;;;;;43.05;40.13;;;;;;;-7.83;82.09;101408.09;6055897;23;20009;-89
2021/12/26 08:31:28;;;;;;;43.47;40.13;;;;;;;-7.85;81.94;101395.50;6055372;23;20022;-88
2021/12/26 08:33:53;;;;;;;43.33;40.17;;;;;;;-7.92;81.95;101366.00;6056061;23;20014;-87
2021/12/26 08:36:20;;;;;;;43.93;40.53;;;;;;;-7.65;81.33;101398.28;6056902;23;19999;-87
2021/12/26 08:38:45;;;;;;;45.53;41.97;;;;;;;-7.29;80.15;101386.94;6081954;23;20473;-88
2021/12/26 08:41:11;;;;;;;45.17;41.40;;;;;;;-6.77;78.35;101393.84;6082149;23;20018;-88
2021/12/26 08:43:36;;;;;;;45.37;41.80;;;;;;;-6.38;77.42;101395.81;6057339;23;20021;-88
2021/12/26 08:46:02;;;;;;;43.87;40.73;;;;;;;-6.41;76.04;101389.03;6060868;23;20034;-90
2021/12/26 08:48:29;;;;;;;46.42;42.65;;;;;;;-6.69;76.20;101378.41;6084737;23;20010;-88
2021/12/26 08:50:58;;;;;;;45.08;41.58;;;;;;;-6.58;76.48;101400.69;6058906;23;20069;-87
2021/12/26 08:53:30;;;;;;;43.67;40.63;;;;;;;-6.91;76.63;101381.41;6059263;23;20061;-88
2021/12/26 08:55:59;;;;;;;42.30;39.38;;;;;;;-7.15;77.00;101377.69;6059482;23;20014;-88
2021/12/26 08:58:25;;;;;;;44.90;41.55;;;;;;;-7.36;77.29;101364.03;6058599;23;20007;-88
2021/12/26 09:00:50;;;;;;;45.63;41.93;;;;;;;-7.67;78.43;101387.31;6056654;23;20007;-89
2021/12/26 09:03:16;;;;;;;46.00;42.33;;;;;;;-7.43;78.22;101360.31;6057229;23;20006;-89
2021/12/26 09:05:42;;;;;;;42.50;39.40;;;;;;;-7.54;77.52;101342.28;6061885;23;20002;-89
2021/12/26 09:08:10;;;;;;;44.28;40.80;;;;;;;-7.43;77.72;101394.47;6085059;23;20077;-88
2021/12/26 09:10:40;;;;;;;44.08;40.75;;;;;;;-7.44;77.40;101385.22;6058814;23;20003;-89
2021/12/26 09:13:07;;;;;;;45.47;41.83;;;;;;;-7.09;77.74;101406.28;6061548;23;20007;-88
2021/12/26 09:15:33;;;;;;;43.80;40.40;;;;;;;-7.38;76.44;101368.06;6061449;23;20053;-87
2021/12/26 09:17:59;;;;;;;45.97;42.33;;;;;;;-7.33;76.43;101391.69;6055797;23;20018;-88
2021/12/26 09:20:25;;;;;;;45.72;41.92;;;;;;;-7.48;76.03;101396.69;6055754;23;20026;-87
2021/12/26 09:22:54;;;;;;;43.78;40.30;;;;;;;-7.55;75.66;101407.16;6056618;23;20007;-88
2021/12/26 09:25:20;;;;;;;41.92;39.13;;;;;;;-7.61;75.00;101395.16;6056692;23;19998;-88
2021/12/26 09:27:45;;;;;;;42.55;39.55;;;;;;;-7.33;74.65;101415.06;6059292;23;20011;-87
2021/12/26 09:30:14;;;;;;;42.77;39.60;;;;;;;-7.60;74.62;101391.91;6066116;23;19999;-87
2021/12/26 09:32:41;;;;;;;45.70;41.45;;;;;;;-7.67;73.67;101399.81;6068948;23;20234;-88
2021/12/26 09:35:07;;;;;;;46.15;42.00;;;;;;;-7.55;74.09;101395.50;6069259;23;20023;-88
2021/12/26 09:37:33;;;;;;;44.58;41.22;;;;;;;-7.73;74.53;101384.47;6069599;23;19994;-89
2021/12/26 09:39:58;;;;;;;44.50;41.07;;;;;;;-7.47;74.98;101400.94;6069486;23;19999;-89
2021/12/26 09:42:24;;;;;;;44.57;40.53;;;;;;;-7.33;74.44;101397.56;6068929;23;19999;-88
2021/12/26 09:44:51;;;;;;;46.92;42.88;;;;;;;-7.54;74.64;101376.38;6069489;23;20094;-88
2021/12/26 09:47:16;;;;;;;;;;;;;;;-7.15;74.41;101410.19;6062857;23;20007;-89
2021/12/26 09:49:41;;;;;;;44.47;41.10;;;;;;;-7.07;74.30;101407.25;6084653;23;20256;-88
2021/12/26 09:52:08;;;;;;;43.53;40.07;;;;;;;-7.07;74.77;101404.75;6060511;23;20003;-89
2021/12/26 09:54:33;;;;;;;45.00;41.67;;;;;;;-7.25;74.97;101409.59;6055546;23;20062;-88
2021/12/26 09:56:59;;;;;;;45.45;41.38;;;;;;;-6.98;75.01;101410.25;6059874;23;20039;-88
2021/12/26 09:59:27;;;;;;;42.87;39.50;;;;;;;-7.25;75.29;101372.97;6065455;23;20037;-88
2021/12/26 10:01:56;;;;;;;43.80;40.63;;;;;;;-7.23;75.17;101398.91;6069865;23;20003;-88
2021/12/26 10:04:27;;;;;;;44.13;40.70;;;;;;;-7.22;74.57;101400.66;6069589;23;20006;-89
2021/12/26 10:06:58;;;;;;;46.33;42.38;;;;;;;-7.19;74.44;101387.44;6071404;23;20002;-89
2021/12/26 10:09:23;;;;;;;46.47;42.33;;;;;;;-7.02;73.01;101384.19;6077328;23;20010;-88
2021/12/26 10:11:51;;;;;;;44.93;41.57;;;;;;;-7.03;72.98;101386.59;6100279;23;20018;-88
2021/12/26 10:14:29;;;;;;;46.05;42.25;;;;;;;-6.76;72.36;101379.69;6099343;23;19999;-89
2021/12/26 10:16:58;;;;;;;45.08;41.33;;;;;;;-6.75;71.46;101372.25;6099757;23;19994;-88
2021/12/26 10:19:24;;;;;;;45.28;41.72;;;;;;;-6.56;70.92;101370.72;6099213;23;20015;-88
2021/12/26 10:21:54;;;;;;;44.58;41.15;;;;;;;-6.38;70.75;101371.66;6095767;23;20074;-89
2021/12/26 10:24:28;;;;;;;44.72;41.47;;;;;;;-6.34;70.49;101365.16;6066666;23;20006;-87
2021/12/26 10:27:07;;;;;;;47.17;43.00;;;;;;;-6.39;70.70;101334.03;6066146;23;20034;-87
2021/12/26 10:29:40;;;;;;;44.20;40.95;;;;;;;-6.27;69.06;101328.75;6066431;23;20006;-88
2021/12/26 10:32:18;;;;;;;46.03;42.45;;;;;;;-6.41;68.78;101336.47;6114325;23;20006;-88
2021/12/26 10:34:51;;;;;;;45.03;41.50;;;;;;;-6.41;68.43;101333.97;6097524;23;19994;-87
2021/12/26 10:37:24;;;;;;;47.30;43.35;;;;;;;-6.18;69.21;101350.91;6098635;23;19990;-89
2021/12/26 10:39:53;;;;;;;46.67;42.92;;;;;;;-5.95;69.02;101357.00;6123967;23;19990;-88
2021/12/26 10:42:23;;;;;;;48.60;43.92;;;;;;;-6.07;69.23;101325.59;6074320;23;20058;-88
2021/12/26 10:45:02;;;;;;;45.42;41.83;;;;;;;-5.71;68.59;101353.19;6075447;23;19995;-88
2021/12/26 10:47:33;;;;;;;46.08;41.95;;;;;;;-5.78;67.67;101320.22;6075648;23;20038;-89
2021/12/26 10:50:00;;;;;;;45.65;41.88;;;;;;;-5.70;66.09;101327.31;6048696;23;20043;-83
2021/12/26 10:52:27;;;;;;;45.08;41.78;;;;;;;-5.52;66.14;101338.97;6082228;23;20010;-83
2021/12/26 10:55:05;;;;;;;45.35;41.92;;;;;;;-5.57;64.88;101322.88;6081574;23;20005;-83
2021/12/26 10:57:39;;;;;;;48.28;43.97;;;;;;;-5.49;64.74;101336.63;6081661;23;20045;-83
2021/12/26 11:00:12;;;;;;;47.28;43.58;;;;;;;-5.44;64.59;101337.72;6076366;23;20007;-83
2021/12/26 11:02:40;;;;;;;49.35;44.85;;;;;;;-5.34;64.42;101327.28;6051280;23;20058;-84
2021/12/26 11:05:07;;;;;;;45.63;42.05;;;;;;;-5.28;63.89;101330.09;6027191;23;20050;-83
2021/12/26 11:07:41;;;;;;;46.00;42.47;;;;;;;-5.26;62.63;101320.13;6033981;23;19995;-82
2021/12/26 11:10:12;;;;;;;47.55;43.55;;;;;;;-5.15;62.78;101323.97;6041615;23;20071;-81